Time;durP1;ratioP1;P1;durP2;ratioP2;P2;SDS_P1;SDS_P2;PMS_P1;PMS_P2;Temp;Humidity;BMP_temperature;BMP_pressure;BME280_temperature;BME280_humidity;BME280_pressure;Samples;Min_cycle;Max_cycle;Signal;HPM_P1;HPM_P2
2023/02/12 00:00:15;;;;;;;15.50;8.57;;;;;;;1.38;41.48;95588.63;4239390;27;20047;-51
2023/02/12 00:02:17;;;;;;;10.65;7.03;;;;;;;1.30;41.31;95575.28;4230696;28;20073;-58
2023/02/12 00:04:19;;;;;;;12.82;7.88;;;;;;;1.32;41.20;95594.94;4245465;27;20200;-56
2023/02/12 00:06:21;;;;;;;13.00;7.75;;;;;;;1.29;41.52;95595.09;4236917;27;20070;-54
2023/02/12 00:08:23;;;;;;;14.77;7.95;;;;;;;1.34;41.48;95579.38;4248137;27;20055;-58
2023/02/12 00:10:25;;;;;;;14.88;8.02;;;;;;;1.37;40.85;95571.44;4246484;27;20479;-54
2023/02/12 00:12:26;;;;;;;12.50;8.00;;;;;;;1.41;41.00;95583.28;4231992;27;20096;-56
2023/02/12 00:14:28;;;;;;;12.13;7.13;;;;;;;1.43;40.62;95587.44;4231681;27;20077;-55
2023/02/12 00:16:30;;;;;;;13.00;7.45;;;;;;;1.37;40.77;95576.59;4256190;27;20110;-56
2023/02/12 00:18:31;;;;;;;13.80;8.30;;;;;;;1.35;40.43;95594.75;4234245;27;20055;-55
2023/02/12 00:20:33;;;;;;;13.35;7.68;;;;;;;1.31;40.80;95588.13;4241301;27;20051;-54
2023/02/12 00:22:35;;;;;;;10.93;7.03;;;;;;;1.33;41.18;95581.09;4246569;27;20086;-56
2023/02/12 00:24:36;;;;;;;11.30;7.82;;;;;;;1.34;41.05;95581.94;4232833;27;20051;-55
2023/02/12 00:26:38;;;;;;;12.30;7.30;;;;;;;1.35;40.65;95578.44;4232355;27;20129;-56
2023/02/12 00:28:40;;;;;;;12.50;7.28;;;;;;;1.34;40.76;95584.53;4234820;27;20097;-54
2023/02/12 00:30:42;;;;;;;12.40;7.40;;;;;;;1.38;40.73;95583.47;4253968;27;20042;-54
2023/02/12 00:32:45;;;;;;;12.15;7.45;;;;;;;1.40;40.81;95573.88;4257842;27;20491;-54
2023/02/12 00:34:46;;;;;;;13.38;7.65;;;;;;;1.41;40.51;95576.34;4251079;27;20047;-53
2023/02/12 00:36:48;;;;;;;15.02;8.05;;;;;;;1.47;40.55;95575.22;4239195;27;20094;-56
2023/02/12 00:38:51;;;;;;;11.57;8.13;;;;;;;1.32;41.18;95568.28;4259371;27;20122;-53
2023/02/12 00:40:53;;;;;;;13.32;8.23;;;;;;;1.26;41.46;95561.69;4244961;27;20135;-53
2023/02/12 00:42:55;;;;;;;12.88;8.13;;;;;;;1.32;41.40;95557.97;4244931;27;20054;-55
2023/02/12 00:44:56;;;;;;;13.82;8.02;;;;;;;1.38;41.75;95557.63;4242749;27;20108;-60
2023/02/12 00:47:01;;;;;;;12.35;7.85;;;;;;;1.28;41.43;95571.94;4258036;27;20046;-63
2023/02/12 00:49:02;;;;;;;16.55;7.90;;;;;;;1.36;41.00;95549.13;4247651;27;20483;-51
2023/02/12 00:51:04;;;;;;;14.68;6.80;;;;;;;1.40;40.66;95548.06;4247349;27;20051;-55
2023/02/12 00:53:07;;;;;;;13.70;7.30;;;;;;;1.41;40.31;95547.13;4247499;27;20071;-54
2023/02/12 00:55:08;;;;;;;11.18;7.15;;;;;;;1.41;40.86;95547.13;4247764;27;20144;-54
2023/02/12 00:57:10;;;;;;;13.80;7.90;;;;;;;1.39;40.47;95534.28;4247143;27;20063;-52
2023/02/12 00:59:12;;;;;;;10.57;6.72;;;;;;;1.44;40.65;95536.63;4247296;27;20054;-54
2023/02/12 01:01:13;;;;;;;13.52;7.35;;;;;;;1.46;40.79;95533.97;4247396;27;20062;-52
2023/02/12 01:03:15;;;;;;;12.93;7.47;;;;;;;1.45;40.60;95522.81;4250803;27;20179;-54
2023/02/12 01:05:18;;;;;;;11.82;7.65;;;;;;;1.41;41.14;95524.72;4241348;27;20043;-53
2023/02/12 01:07:20;;;;;;;13.85;7.38;;;;;;;1.47;40.84;95520.97;4239123;27;20040;-60
2023/02/12 01:09:22;;;;;;;14.55;7.28;;;;;;;1.41;40.97;95526.47;4247208;27;20502;-60
2023/02/12 01:11:23;;;;;;;16.58;7.78;;;;;;;1.35;40.75;95532.78;4236190;27;20564;-59
2023/02/12 01:13:26;;;;;;;13.88;7.82;;;;;;;1.39;40.83;95529.13;4234509;27;20237;-60
2023/02/12 01:15:27;;;;;;;14.80;8.10;;;;;;;1.42;40.96;95534.16;4232783;27;20046;-59
2023/02/12 01:17:29;;;;;;;13.23;7.20;;;;;;;1.45;41.02;95534.91;4243766;27;20092;-59
2023/02/12 01:19:31;;;;;;;13.13;7.43;;;;;;;1.34;41.09;95530.31;4235910;27;20104;-60
2023/02/12 01:21:34;;;;;;;14.02;8.27;;;;;;;1.43;40.99;95540.13;4236486;27;20058;-61
2023/02/12 01:23:35;;;;;;;12.63;7.60;;;;;;;1.32;41.26;95543.28;4246973;27;20043;-59
2023/02/12 01:25:37;;;;;;;11.18;7.40;;;;;;;1.38;41.61;95536.97;4245039;27;20085;-61
2023/02/12 01:27:39;;;;;;;14.40;7.95;;;;;;;1.39;41.44;95534.28;4235372;27;20215;-60
2023/02/12 01:29:43;;;;;;;16.27;8.30;;;;;;;1.22;42.09;95545.53;4234249;27;20051;-61
2023/02/12 01:31:45;;;;;;;13.80;8.23;;;;;;;1.28;41.98;95556.47;4234005;27;20100;-60
2023/02/12 01:33:48;;;;;;;12.93;8.23;;;;;;;1.17;42.06;95552.69;4243284;27;20083;-60
2023/02/12 01:35:50;;;;;;;11.93;7.93;;;;;;;1.23;42.74;95549.78;4240109;27;20077;-59
2023/02/12 01:37:51;;;;;;;16.85;9.07;;;;;;;1.23;42.23;95552.38;4255516;27;20422;-51
2023/02/12 01:39:53;;;;;;;14.55;8.35;;;;;;;1.23;42.44;95536.88;4245541;27;20055;-57
2023/02/12 01:41:55;;;;;;;14.55;8.43;;;;;;;1.26;42.46;95535.06;4243098;27;20437;-51
2023/02/12 01:44:04;;;;;;;15.65;9.18;;;;;;;1.19;42.44;95532.78;4247201;27;20051;-53
2023/02/12 01:46:09;;;;;;;17.38;9.38;;;;;;;1.28;42.69;95530.63;4245664;27;20565;-55
2023/02/12 01:48:13;;;;;;;13.32;8.75;;;;;;;1.23;42.80;95523.97;4240472;27;20047;-53
2023/02/12 01:50:17;;;;;;;14.05;8.57;;;;;;;1.22;43.11;95511.97;4238247;27;20051;-57
2023/02/12 01:52:26;;;;;;;17.35;9.40;;;;;;;1.21;43.32;95515.47;4230821;27;20051;-53
2023/02/12 01:54:28;;;;;;;16.70;9.07;;;;;;;1.19;42.79;95509.56;4229938;27;20048;-52
2023/02/12 01:56:31;;;;;;;16.02;8.98;;;;;;;1.21;42.61;95515.47;4229872;27;20116;-56
2023/02/12 01:58:38;;;;;;;16.30;9.38;;;;;;;1.29;42.98;95514.22;4256841;27;20134;-54
2023/02/12 02:00:40;;;;;;;17.10;9.25;;;;;;;1.31;43.16;95514.97;4245811;27;20471;-50
2023/02/12 02:02:44;;;;;;;17.23;9.93;;;;;;;1.33;42.79;95523.47;4242012;27;20051;-54
2023/02/12 02:04:51;;;;;;;17.92;9.60;;;;;;;1.27;43.30;95527.22;4240633;27;20105;-55
2023/02/12 02:06:56;;;;;;;15.60;8.57;;;;;;;1.34;42.93;95530.31;4245610;27;20089;-55
2023/02/12 02:08:58;;;;;;;14.30;9.23;;;;;;;1.25;43.12;95521.31;4246939;27;20039;-57
2023/02/12 02:10:59;;;;;;;17.00;10.40;;;;;;;1.16;43.57;95519.22;4246374;27;20058;-56
2023/02/12 02:15:22;;;;;;;16.83;9.07;;;;;;;1.13;43.55;95524.53;4241418;27;20056;-55
2023/02/12 02:17:54;;;;;;;14.57;9.18;;;;;;;1.12;43.50;95523.72;4227345;28;20131;-59
2023/02/12 02:20:21;;;;;;;15.82;9.88;;;;;;;1.16;43.62;95517.47;4233439;27;20039;-56
2023/02/12 02:23:00;;;;;;;14.07;8.18;;;;;;;1.21;43.40;95530.97;4246561;27;20491;-54
2023/02/12 02:25:14;;;;;;;22.33;9.85;;;;;;;1.18;43.91;95525.97;4246482;27;20039;-51
2023/02/12 02:27:27;;;;;;;16.00;8.60;;;;;;;1.19;44.11;95524.22;4244751;27;20051;-53
2023/02/12 02:30:13;;;;;;;16.30;9.82;;;;;;;1.28;44.12;95515.97;4244731;27;20522;-54
2023/02/12 02:32:22;;;;;;;16.23;9.27;;;;;;;1.27;43.81;95511.75;4217438;28;20100;-54
2023/02/12 02:34:33;;;;;;;16.60;9.75;;;;;;;1.30;44.08;95514.16;4231881;27;20051;-55
2023/02/12 02:36:54;;;;;;;17.00;9.45;;;;;;;1.40;43.57;95509.34;4245300;27;20132;-54
2023/02/12 02:39:09;;;;;;;15.70;8.70;;;;;;;1.26;44.37;95516.97;4246209;27;20051;-57
2023/02/12 02:41:19;;;;;;;15.55;9.38;;;;;;;1.21;44.84;95510.31;4228975;28;20082;-56
2023/02/12 02:43:48;;;;;;;17.98;9.73;;;;;;;1.19;44.69;95513.91;4228950;28;20461;-54
2023/02/12 02:45:52;;;;;;;15.40;9.38;;;;;;;1.19;45.09;95519.06;4231597;27;20055;-56
2023/02/12 02:48:12;;;;;;;17.30;8.98;;;;;;;1.22;44.71;95517.13;4244025;27;20108;-53
2023/02/12 02:50:17;;;;;;;16.35;10.02;;;;;;;1.27;45.23;95526.38;4234155;27;20055;-56
2023/02/12 02:52:24;;;;;;;18.15;9.73;;;;;;;1.32;45.20;95520.06;4242362;27;20051;-55
2023/02/12 02:54:39;;;;;;;16.92;9.20;;;;;;;1.29;44.95;95521.97;4238477;27;20051;-52
2023/02/12 02:56:44;;;;;;;14.60;8.80;;;;;;;1.32;44.95;95517.47;4240425;27;20463;-54
2023/02/12 02:58:51;;;;;;;16.88;10.00;;;;;;;1.39;45.42;95525.72;4231185;27;20048;-52
2023/02/12 03:01:13;;;;;;;16.38;9.98;;;;;;;1.46;44.94;95515.91;4238394;27;20050;-55
2023/02/12 03:03:38;;;;;;;18.33;9.02;;;;;;;1.47;45.17;95520.16;4240765;27;20058;-58
2023/02/12 03:05:46;;;;;;;15.65;9.45;;;;;;;1.42;45.48;95513.50;4250984;27;20550;-59
2023/02/12 03:07:53;;;;;;;16.33;10.07;;;;;;;1.32;45.94;95521.81;4228183;28;20047;-60
2023/02/12 03:10:30;;;;;;;17.33;9.48;;;;;;;1.15;46.17;95525.31;4242003;28;20151;-61
2023/02/12 03:12:40;;;;;;;22.90;10.43;;;;;;;1.00;46.56;95527.75;4220868;28;20064;-57
2023/02/12 03:14:53;;;;;;;16.20;10.25;;;;;;;1.07;46.32;95528.28;4242311;28;20054;-59
2023/02/12 03:17:03;;;;;;;19.80;10.60;;;;;;;1.17;47.02;95526.06;4229966;28;20556;-60
2023/02/12 03:19:12;;;;;;;17.98;10.57;;;;;;;1.20;46.56;95534.44;4227812;28;20059;-57
2023/02/12 03:21:18;;;;;;;18.70;10.57;;;;;;;1.21;46.43;95520.63;4241489;28;20051;-57
2023/02/12 03:23:24;;;;;;;16.13;10.00;;;;;;;1.11;47.04;95516.88;4245971;27;20043;-60
2023/02/12 03:25:35;;;;;;;16.75;10.05;;;;;;;1.17;46.64;95519.13;4235233;28;20051;-60
2023/02/12 03:27:46;;;;;;;19.02;11.38;;;;;;;1.17;46.60;95516.56;4240112;28;20080;-60
2023/02/12 03:29:48;;;;;;;20.92;11.75;;;;;;;1.15;46.93;95520.13;4228477;28;20426;-58
2023/02/12 03:32:37;;;;;;;20.65;12.07;;;;;;;0.88;47.88;95506.94;4236667;28;20078;-62
2023/02/12 03:35:09;;;;;;;20.83;11.73;;;;;;;0.82;47.97;95515.84;4220359;28;20082;-54
2023/02/12 03:37:18;;;;;;;19.63;12.05;;;;;;;0.90;48.03;95505.13;4237312;27;20070;-52
2023/02/12 03:39:40;;;;;;;20.95;11.55;;;;;;;0.95;47.85;95505.72;4239282;27;20113;-55
2023/02/12 03:42:03;;;;;;;22.73;12.63;;;;;;;1.05;47.62;95504.28;4228703;28;20512;-53
2023/02/12 03:44:17;;;;;;;18.70;11.40;;;;;;;1.00;47.27;95501.13;4228915;28;20060;-55
2023/02/12 03:46:24;;;;;;;;;;;;;;;0.98;48.07;95508.94;4234588;28;20078;-53
2023/02/12 03:48:41;;;;;;;25.08;12.98;;;;;;;1.02;47.88;95504.47;4232083;28;19923;-55
2023/02/12 03:50:57;;;;;;;21.65;12.45;;;;;;;0.95;47.64;95496.22;4228295;27;20423;-55
2023/02/12 03:52:59;;;;;;;20.27;11.77;;;;;;;0.88;47.98;95502.59;4236072;28;20048;-54
2023/02/12 03:55:01;;;;;;;22.83;12.50;;;;;;;0.72;49.04;95505.16;4228540;28;20075;-50
2023/02/12 03:57:09;;;;;;;32.17;12.88;;;;;;;0.63;49.00;95507.41;4241262;28;20055;-54
2023/02/12 03:59:11;;;;;;;20.15;12.82;;;;;;;0.67;49.17;95511.47;4227195;28;20094;-56
2023/02/12 04:01:13;;;;;;;21.90;13.07;;;;;;;0.57;49.19;95508.53;4228465;28;20554;-54
2023/02/12 04:03:15;;;;;;;22.77;13.23;;;;;;;0.60;49.31;95514.38;4241799;27;20077;-55
2023/02/12 04:05:18;;;;;;;25.38;14.82;;;;;;;0.43;49.52;95505.81;4235110;27;20058;-54
2023/02/12 04:07:20;;;;;;;24.17;14.23;;;;;;;0.50;50.11;95504.63;4247821;27;20047;-54
2023/02/12 04:09:24;;;;;;;23.42;13.65;;;;;;;0.49;49.93;95510.66;4248891;27;20063;-53
2023/02/12 04:11:56;;;;;;;24.77;14.77;;;;;;;0.28;50.68;95507.41;4233560;27;20126;-52
2023/02/12 04:14:31;;;;;;;23.13;13.35;;;;;;;0.32;50.17;95509.78;4231620;27;20419;-55
2023/02/12 04:16:45;;;;;;;24.13;14.48;;;;;;;0.31;50.26;95510.69;4231891;28;20047;-52
2023/02/12 04:18:50;;;;;;;25.08;13.57;;;;;;;0.16;50.91;95529.50;4229310;28;20051;-55
2023/02/12 04:21:19;;;;;;;26.10;13.75;;;;;;;0.01;51.65;95525.09;4229715;28;20052;-60
2023/02/12 04:23:39;;;;;;;24.75;14.13;;;;;;;-0.15;51.86;95538.72;4238297;27;20051;-61
2023/02/12 04:25:52;;;;;;;25.48;13.73;;;;;;;-0.14;52.04;95536.97;4248292;27;20042;-60
2023/02/12 04:27:56;;;;;;;21.83;12.70;;;;;;;-0.25;52.28;95530.59;4246119;27;20743;-59
2023/02/12 04:30:20;;;;;;;20.73;13.70;;;;;;;-0.32;52.37;95528.34;4246651;27;20043;-60
2023/02/12 04:32:37;;;;;;;29.65;13.25;;;;;;;-0.29;52.30;95525.66;4246743;27;20051;-60
2023/02/12 04:34:44;;;;;;;24.00;13.40;;;;;;;-0.29;52.50;95526.47;4237408;27;20196;-58
2023/02/12 04:36:58;;;;;;;23.08;13.77;;;;;;;-0.35;52.32;95524.19;4247333;27;20138;-60
2023/02/12 04:39:07;;;;;;;23.07;12.73;;;;;;;-0.37;52.78;95533.72;4247096;27;20083;-60
2023/02/12 04:41:09;;;;;;;24.88;14.60;;;;;;;-0.34;52.70;95536.19;4246599;27;20423;-59
2023/02/12 04:43:11;;;;;;;22.90;14.05;;;;;;;-0.35;52.83;95529.34;4238256;27;20517;-59
2023/02/12 04:45:15;;;;;;;24.73;14.90;;;;;;;-0.36;52.59;95532.84;4240723;27;20044;-61
2023/02/12 04:47:17;;;;;;;28.33;16.42;;;;;;;-0.45;52.89;95536.69;4245113;27;20051;-59
2023/02/12 04:49:20;;;;;;;30.10;17.98;;;;;;;-0.39;53.06;95540.69;4232595;27;20055;-61
2023/02/12 04:51:22;;;;;;;34.10;20.45;;;;;;;-0.36;52.89;95537.16;4230884;28;20051;-60
2023/02/12 04:53:24;;;;;;;33.30;20.98;;;;;;;-0.32;53.31;95547.25;4234488;27;20054;-60
2023/02/12 04:55:25;;;;;;;40.13;21.33;;;;;;;-0.26;53.24;95544.38;4245502;27;20047;-60
2023/02/12 04:57:27;;;;;;;38.35;21.55;;;;;;;-0.21;52.89;95551.88;4247308;27;20547;-60
2023/02/12 04:59:29;;;;;;;34.60;19.20;;;;;;;-0.09;53.07;95558.19;4247232;27;20474;-61
2023/02/12 05:01:34;;;;;;;37.67;20.92;;;;;;;-0.04;53.09;95558.81;4247762;27;20043;-55
2023/02/12 05:03:36;;;;;;;34.17;17.98;;;;;;;0.06;52.58;95549.69;4247161;27;20652;-55
2023/02/12 05:05:38;;;;;;;33.47;17.40;;;;;;;0.07;52.39;95555.72;4247409;27;20062;-55
2023/02/12 05:07:39;;;;;;;26.60;14.88;;;;;;;0.22;51.89;95543.81;4247898;27;20067;-56
2023/02/12 05:09:41;;;;;;;31.75;14.15;;;;;;;0.33;51.55;95555.25;4247686;27;20047;-54
2023/02/12 05:11:43;;;;;;;24.75;12.80;;;;;;;0.34;51.32;95558.66;4234673;27;20047;-55
2023/02/12 05:13:52;;;;;;;25.33;13.98;;;;;;;0.45;51.71;95566.69;4247587;27;20423;-55
2023/02/12 05:15:53;;;;;;;19.83;12.05;;;;;;;0.52;50.64;95562.09;4236023;27;20044;-57
2023/02/12 05:17:56;;;;;;;23.10;12.82;;;;;;;0.53;50.58;95564.56;4244137;27;20043;-58
2023/02/12 05:19:57;;;;;;;20.48;11.20;;;;;;;0.62;50.63;95565.84;4235916;27;20130;-59
2023/02/12 05:21:59;;;;;;;20.52;11.15;;;;;;;0.70;50.56;95563.72;4238607;27;20108;-57
2023/02/12 05:24:02;;;;;;;23.05;12.25;;;;;;;0.81;50.32;95570.91;4231186;28;20089;-54
2023/02/12 05:26:06;;;;;;;20.30;10.80;;;;;;;0.82;50.06;95575.19;4244300;27;20047;-57
2023/02/12 05:28:07;;;;;;;24.05;12.40;;;;;;;0.77;50.13;95575.38;4236755;27;20475;-58
2023/02/12 05:30:09;;;;;;;24.52;11.15;;;;;;;0.83;50.47;95584.56;4247484;27;20040;-57
2023/02/12 05:32:11;;;;;;;18.92;10.52;;;;;;;0.80;51.70;95592.47;4246280;27;20043;-57
2023/02/12 05:34:13;;;;;;;18.05;10.10;;;;;;;0.74;51.62;95582.47;4228782;28;20148;-55
2023/02/12 05:36:17;;;;;;;22.13;10.85;;;;;;;0.79;51.78;95603.69;4230040;27;20422;-56
2023/02/12 05:38:19;;;;;;;20.00;10.60;;;;;;;0.67;52.43;95592.25;4243920;27;20035;-55
2023/02/12 05:40:20;;;;;;;20.90;11.48;;;;;;;0.73;52.54;95581.63;4233251;27;20132;-58
2023/02/12 05:42:22;;;;;;;19.83;11.75;;;;;;;0.76;52.43;95596.94;4229570;28;20057;-57
2023/02/12 05:44:24;;;;;;;20.35;11.18;;;;;;;0.78;52.71;95592.53;4234351;27;20054;-56
2023/02/12 05:46:25;;;;;;;18.25;11.00;;;;;;;0.74;53.58;95616.00;4240747;27;20131;-61
2023/02/12 05:48:28;;;;;;;22.60;12.38;;;;;;;0.58;54.36;95614.19;4231685;27;20473;-62
2023/02/12 05:50:29;;;;;;;20.83;12.27;;;;;;;0.54;54.92;95604.94;4230626;27;20052;-62
2023/02/12 05:52:32;;;;;;;23.40;13.15;;;;;;;0.64;54.93;95604.47;4234563;27;20491;-60
2023/02/12 05:54:34;;;;;;;23.88;12.68;;;;;;;0.68;54.72;95604.22;4239604;27;20529;-61
2023/02/12 05:56:40;;;;;;;21.92;12.43;;;;;;;0.74;54.92;95597.94;4241629;27;20061;-61
2023/02/12 05:58:51;;;;;;;25.17;13.82;;;;;;;0.76;54.61;95602.09;4244275;27;20047;-59
2023/02/12 06:00:53;;;;;;;24.80;13.23;;;;;;;0.84;54.77;95606.88;4245882;27;20054;-60
2023/02/12 06:02:54;;;;;;;22.30;13.18;;;;;;;0.79;55.01;95607.09;4246386;27;20058;-60
2023/02/12 06:04:56;;;;;;;23.92;11.32;;;;;;;0.78;54.82;95625.25;4246339;27;20636;-60
2023/02/12 06:06:59;;;;;;;24.20;12.30;;;;;;;0.86;55.07;95604.22;4245867;27;20044;-62
2023/02/12 06:09:01;;;;;;;18.90;10.95;;;;;;;0.90;55.60;95605.72;4245156;27;20046;-62
2023/02/12 06:11:05;;;;;;;20.67;10.43;;;;;;;0.97;55.49;95613.09;4246867;27;20082;-60
2023/02/12 06:13:07;;;;;;;16.17;10.07;;;;;;;0.89;56.36;95609.22;4246635;27;20051;-60
2023/02/12 06:15:08;;;;;;;18.83;10.60;;;;;;;0.80;57.52;95608.78;4247405;27;20410;-60
2023/02/12 06:17:10;;;;;;;19.85;11.07;;;;;;;0.72;58.18;95605.75;4246032;27;20467;-60
2023/02/12 06:19:12;;;;;;;19.70;11.30;;;;;;;0.76;58.59;95609.00;4246871;27;20039;-60
2023/02/12 06:21:14;;;;;;;18.65;10.32;;;;;;;0.78;57.99;95620.91;4245670;27;20043;-60
2023/02/12 06:23:16;;;;;;;19.63;11.75;;;;;;;0.80;58.61;95613.94;4245998;27;20039;-60
2023/02/12 06:25:18;;;;;;;18.63;10.65;;;;;;;0.75;58.62;95610.75;4245460;27;20523;-62
2023/02/12 06:27:19;;;;;;;19.58;10.25;;;;;;;0.80;58.86;95624.25;4244892;27;20063;-60
2023/02/12 06:29:21;;;;;;;19.67;10.48;;;;;;;0.86;59.77;95624.84;4232860;27;20047;-61
2023/02/12 06:31:26;;;;;;;20.75;11.30;;;;;;;0.88;60.38;95613.53;4246690;27;20131;-62
2023/02/12 06:33:28;;;;;;;18.63;11.30;;;;;;;0.78;61.47;95620.91;4246106;27;20092;-61
2023/02/12 06:35:29;;;;;;;19.35;11.48;;;;;;;0.79;61.77;95614.00;4245457;27;20047;-61
2023/02/12 06:37:31;;;;;;;16.73;11.23;;;;;;;0.86;61.95;95606.78;4254298;27;20371;-59
2023/02/12 06:39:33;;;;;;;15.90;10.55;;;;;;;0.82;62.46;95619.03;4242196;27;20108;-63
2023/02/12 06:41:34;;;;;;;19.60;11.00;;;;;;;0.89;62.41;95616.97;4243605;27;20051;-61
2023/02/12 06:43:36;;;;;;;18.73;11.40;;;;;;;0.92;62.39;95622.78;4246132;27;20126;-63
2023/02/12 06:45:38;;;;;;;18.92;10.70;;;;;;;0.93;62.66;95626.22;4245786;27;20088;-63
2023/02/12 06:47:40;;;;;;;16.70;9.82;;;;;;;0.80;62.89;95621.66;4241111;27;20369;-64
2023/02/12 06:49:41;;;;;;;19.13;10.80;;;;;;;0.80;63.51;95628.59;4231499;27;20047;-63
2023/02/12 06:51:43;;;;;;;18.02;10.52;;;;;;;0.80;63.38;95616.50;4241052;27;20043;-63
2023/02/12 06:53:44;;;;;;;18.45;10.57;;;;;;;0.81;63.35;95620.75;4245378;27;20051;-62
2023/02/12 06:55:46;;;;;;;16.52;9.50;;;;;;;0.81;63.57;95631.06;4246104;27;20442;-60
2023/02/12 06:57:48;;;;;;;21.80;9.85;;;;;;;0.84;63.45;95621.50;4246100;27;20536;-61
2023/02/12 06:59:49;;;;;;;17.60;10.52;;;;;;;0.85;63.56;95633.50;4244944;27;20066;-62
2023/02/12 07:01:51;;;;;;;19.08;10.77;;;;;;;0.85;63.48;95628.34;4245456;27;20482;-61
2023/02/12 07:03:56;;;;;;;21.08;11.77;;;;;;;0.91;63.24;95618.56;4245874;27;20047;-59
2023/02/12 07:05:58;;;;;;;21.83;12.98;;;;;;;0.94;62.98;95623.53;4246065;27;20053;-62
2023/02/12 07:07:59;;;;;;;16.52;10.38;;;;;;;1.01;62.80;95626.63;4246272;27;20056;-61
2023/02/12 07:10:01;;;;;;;19.58;10.90;;;;;;;1.05;62.04;95624.75;4246422;27;20448;-61
2023/02/12 07:12:03;;;;;;;18.98;11.13;;;;;;;1.07;61.89;95626.34;4245873;27;20510;-62
2023/02/12 07:14:06;;;;;;;18.27;10.82;;;;;;;1.06;62.09;95624.69;4245761;27;20047;-62
2023/02/12 07:16:13;;;;;;;19.90;11.57;;;;;;;1.03;62.19;95622.25;4244522;27;20074;-61
2023/02/12 07:18:14;;;;;;;18.83;12.10;;;;;;;1.11;61.92;95627.03;4233517;28;20121;-60
2023/02/12 07:20:16;;;;;;;17.88;11.30;;;;;;;1.03;61.89;95622.25;4245351;27;20082;-62
2023/02/12 07:22:19;;;;;;;21.42;11.93;;;;;;;1.06;61.85;95616.94;4245799;27;20135;-62
2023/02/12 07:24:21;;;;;;;19.77;10.43;;;;;;;1.07;62.29;95621.16;4245325;27;20051;-61
2023/02/12 07:26:23;;;;;;;20.23;12.40;;;;;;;1.05;62.37;95622.16;4246226;28;20080;-61
2023/02/12 07:28:25;;;;;;;20.88;11.18;;;;;;;1.04;61.92;95636.81;4244668;27;20429;-61
2023/02/12 07:30:27;;;;;;;18.23;10.98;;;;;;;1.06;61.97;95634.19;4245265;27;20051;-63
2023/02/12 07:32:31;;;;;;;19.85;11.55;;;;;;;1.13;62.15;95630.34;4244091;27;20043;-63
2023/02/12 07:34:33;;;;;;;20.85;10.63;;;;;;;1.17;61.96;95634.44;4245406;27;20539;-63
2023/02/12 07:36:35;;;;;;;22.30;12.43;;;;;;;1.05;62.24;95629.91;4245884;27;20047;-62
2023/02/12 07:38:40;;;;;;;22.83;12.23;;;;;;;0.90;62.84;95634.09;4251379;27;20059;-62
2023/02/12 07:40:42;;;;;;;23.95;12.95;;;;;;;0.77;63.38;95644.19;4249140;27;20047;-65
2023/02/12 07:42:44;;;;;;;20.75;12.80;;;;;;;0.45;64.40;95648.34;4244875;27;20066;-61
2023/02/12 07:44:45;;;;;;;29.02;15.38;;;;;;;0.05;65.65;95652.84;4239991;27;20138;-60
2023/02/12 07:46:48;;;;;;;28.63;15.00;;;;;;;0.09;66.46;95651.81;4237230;27;20065;-62
2023/02/12 07:48:50;;;;;;;30.98;15.00;;;;;;;0.16;66.31;95658.31;4245987;27;20072;-62
2023/02/12 07:50:51;;;;;;;27.35;14.23;;;;;;;0.06;66.84;95662.22;4236671;27;20413;-63
2023/02/12 07:52:53;;;;;;;34.03;17.70;;;;;;;0.17;66.42;95665.13;4249547;27;20499;-62
2023/02/12 07:54:55;;;;;;;28.30;15.85;;;;;;;-0.07;67.45;95662.78;4249339;27;20043;-62
2023/02/12 07:56:57;;;;;;;27.33;15.93;;;;;;;-0.07;67.33;95659.41;4235157;27;20063;-60
2023/02/12 07:59:01;;;;;;;28.17;16.65;;;;;;;-0.04;67.82;95651.53;4245000;27;20044;-63
2023/02/12 08:01:22;;;;;;;29.05;16.73;;;;;;;-0.01;67.64;95667.66;4232248;27;20463;-62
2023/02/12 08:03:24;;;;;;;31.42;18.23;;;;;;;-0.04;68.26;95660.09;4233869;27;20048;-61
2023/02/12 08:05:27;;;;;;;36.42;20.13;;;;;;;0.10;67.95;95668.91;4243443;27;20043;-61
2023/02/12 08:07:28;;;;;;;37.33;20.42;;;;;;;-0.17;68.26;95665.88;4248547;27;20571;-63
2023/02/12 08:09:30;;;;;;;32.42;18.92;;;;;;;-0.17;68.53;95659.00;4248194;27;20046;-62
2023/02/12 08:11:35;;;;;;;31.65;18.77;;;;;;;-0.35;69.30;95655.50;4247763;27;20043;-63
2023/02/12 08:13:37;;;;;;;35.90;20.85;;;;;;;-0.33;69.12;95665.75;4247490;27;20124;-61
2023/02/12 08:15:39;;;;;;;41.28;22.00;;;;;;;-0.38;69.79;95652.25;4248168;27;20430;-61
2023/02/12 08:17:42;;;;;;;36.60;22.35;;;;;;;-0.33;69.29;95651.13;4248182;27;20057;-61
2023/02/12 08:19:44;;;;;;;34.13;19.93;;;;;;;-0.25;69.79;95655.94;4248130;27;20479;-58
2023/02/12 08:21:49;;;;;;;26.98;15.32;;;;;;;-0.06;68.57;95655.94;4247680;27;20279;-60
2023/02/12 08:23:52;;;;;;;26.92;15.60;;;;;;;0.05;68.31;95655.44;4248279;27;20050;-58
2023/02/12 08:25:54;;;;;;;26.55;15.50;;;;;;;0.17;67.67;95659.97;4246487;27;20339;-59
2023/02/12 08:27:56;;;;;;;25.15;15.32;;;;;;;0.24;68.00;95666.53;4247965;27;20047;-63
2023/02/12 08:29:58;;;;;;;25.45;15.73;;;;;;;0.37;67.47;95667.63;4248122;27;20492;-59
2023/02/12 08:32:01;;;;;;;26.98;17.00;;;;;;;0.49;66.85;95678.25;4247861;27;20054;-59
2023/02/12 08:34:03;;;;;;;27.45;16.00;;;;;;;0.57;66.97;95682.13;4247549;27;20415;-54
2023/02/12 08:36:10;;;;;;;25.90;15.25;;;;;;;0.68;66.37;95679.00;4246981;27;20118;-57
2023/02/12 08:38:12;;;;;;;22.90;14.57;;;;;;;0.68;65.89;95683.34;4245575;27;20047;-57
2023/02/12 08:40:14;;;;;;;24.30;13.85;;;;;;;0.63;66.26;95682.75;4234549;27;20066;-57
2023/02/12 08:42:15;;;;;;;23.70;14.88;;;;;;;0.72;65.71;95690.03;4233745;27;20116;-56
2023/02/12 08:44:17;;;;;;;20.95;12.88;;;;;;;0.81;66.02;95692.16;4234844;27;20059;-59
2023/02/12 08:46:21;;;;;;;26.90;15.27;;;;;;;0.84;65.77;95688.56;4241526;27;20036;-60
2023/02/12 08:48:23;;;;;;;;;;;;;;;0.92;65.55;95694.19;4241690;27;20088;-57
2023/02/12 08:50:24;;;;;;;26.45;14.18;;;;;;;0.82;65.20;95699.81;4233880;27;19920;-59
2023/02/12 08:52:26;;;;;;;23.92;14.57;;;;;;;0.95;65.37;95701.81;4234843;27;20134;-60
2023/02/12 08:54:29;;;;;;;21.55;13.23;;;;;;;0.96;65.23;95695.72;4248310;27;20047;-63
2023/02/12 08:56:32;;;;;;;25.25;15.43;;;;;;;0.94;65.08;95705.28;4246682;27;20051;-59
2023/02/12 08:58:34;;;;;;;23.73;13.82;;;;;;;0.95;65.47;95700.06;4233522;27;20051;-58
2023/02/12 09:00:36;;;;;;;21.05;14.27;;;;;;;1.02;65.16;95695.41;4247620;27;20047;-57
2023/02/12 09:02:40;;;;;;;24.17;14.98;;;;;;;1.07;65.25;95693.44;4247606;27;20056;-56
2023/02/12 09:04:42;;;;;;;26.02;15.43;;;;;;;1.08;64.83;95705.44;4246378;27;20131;-60
2023/02/12 09:06:45;;;;;;;23.55;15.23;;;;;;;1.03;65.33;95707.38;4245708;27;20100;-60
2023/02/12 09:08:47;;;;;;;24.35;15.10;;;;;;;1.05;65.50;95712.47;4248174;27;20051;-55
2023/02/12 09:10:49;;;;;;;23.48;15.05;;;;;;;1.17;65.18;95715.28;4248282;27;20055;-62
2023/02/12 09:12:50;;;;;;;25.45;15.10;;;;;;;1.29;64.77;95713.00;4247650;27;20140;-61
2023/02/12 09:14:52;;;;;;;28.13;16.45;;;;;;;1.33;64.59;95706.75;4248032;27;20059;-60
2023/02/12 09:16:56;;;;;;;28.02;15.75;;;;;;;1.29;65.02;95721.59;4247538;27;20092;-63
2023/02/12 09:18:58;;;;;;;24.38;15.68;;;;;;;1.26;65.01;95715.75;4237692;27;20108;-61
2023/02/12 09:21:02;;;;;;;23.85;15.30;;;;;;;1.27;64.73;95718.25;4243871;27;20138;-59
2023/02/12 09:23:04;;;;;;;23.55;14.93;;;;;;;1.24;64.77;95720.97;4244647;27;20112;-59
2023/02/12 09:25:06;;;;;;;26.15;15.65;;;;;;;1.25;64.90;95717.50;4231502;27;20078;-57
2023/02/12 09:27:08;;;;;;;22.98;15.15;;;;;;;1.30;64.77;95719.84;4230106;28;20601;-60
2023/02/12 09:29:09;;;;;;;43.63;22.20;;;;;;;1.30;64.75;95722.41;4245324;27;20058;-61
2023/02/12 09:31:16;;;;;;;34.80;17.90;;;;;;;1.42;64.72;95714.06;4243836;27;20468;-60
2023/02/12 09:33:18;;;;;;;25.67;15.77;;;;;;;1.45;64.59;95725.97;4230847;27;20047;-57
2023/02/12 09:35:20;;;;;;;27.85;16.77;;;;;;;1.43;64.54;95718.28;4243435;27;20154;-60
2023/02/12 09:37:21;;;;;;;27.40;16.02;;;;;;;1.52;64.56;95719.56;4246317;27;20047;-60
2023/02/12 09:39:23;;;;;;;24.52;16.27;;;;;;;1.59;64.05;95718.34;4241830;27;20143;-61
2023/02/12 09:42:06;;;;;;;23.50;15.60;;;;;;;1.58;64.22;95722.66;4236533;27;20077;-59
2023/02/12 09:44:14;;;;;;;24.92;14.93;;;;;;;1.61;64.06;95726.84;4232782;27;20093;-59
2023/02/12 09:46:31;;;;;;;23.52;15.40;;;;;;;1.53;64.13;95729.00;4246149;27;20050;-61